createdAt,value
2019-01-02T00:00:02.994Z,0
2019-01-02T00:05:02.920Z,0
2019-01-02T00:10:02.825Z,0
2019-01-02T00:15:03.194Z,0
2019-01-02T00:20:02.587Z,0
2019-01-02T00:25:03.030Z,0
2019-01-02T00:30:02.494Z,0
2019-01-02T00:40:02.760Z,0
2019-01-02T00:45:02.484Z,0
2019-01-02T00:50:03.197Z,0
2019-01-02T00:55:02.824Z,0
2019-01-02T01:00:02.664Z,0
2019-01-02T01:05:02.890Z,0
2019-01-02T01:10:02.723Z,0
2019-01-02T01:15:03.361Z,0
2019-01-02T01:20:03.087Z,0
2019-01-02T01:25:02.706Z,0
2019-01-02T01:30:03.056Z,0
2019-01-02T01:35:02.475Z,0
2019-01-02T01:40:02.948Z,0
2019-01-02T01:45:03.303Z,0
2019-01-02T01:50:02.771Z,0
2019-01-02T01:55:03.203Z,0
2019-01-02T02:00:02.648Z,0
2019-01-02T02:05:02.380Z,0
2019-01-02T02:10:02.814Z,0
2019-01-02T02:15:03.269Z,0
2019-01-02T02:20:02.638Z,0
2019-01-02T02:25:03.324Z,0
2019-01-02T02:30:02.740Z,0
2019-01-02T02:35:03.088Z,0
2019-01-02T02:40:02.603Z,0
2019-01-02T02:45:02.946Z,0
2019-01-02T02:50:02.579Z,0
2019-01-02T03:00:02.337Z,0
2019-01-02T03:05:02.779Z,0
2019-01-02T03:10:02.597Z,0
2019-01-02T03:15:03.257Z,0
2019-01-02T03:20:02.664Z,0
2019-01-02T03:25:02.475Z,0
2019-01-02T03:30:03.192Z,0
2019-01-02T03:35:03.002Z,0
2019-01-02T03:40:02.532Z,0
2019-01-02T03:45:02.969Z,0
2019-01-02T03:50:02.367Z,0
2019-01-02T03:55:02.708Z,0
2019-01-02T04:00:03.455Z,0
2019-01-02T04:05:02.868Z,0
2019-01-02T04:10:03.311Z,0
2019-01-02T04:15:02.651Z,0
2019-01-02T04:20:03.000Z,0
2019-01-02T04:25:02.399Z,0
2019-01-02T04:30:02.849Z,0
2019-01-02T04:35:03.311Z,0
2019-01-02T04:40:02.833Z,0
2019-01-02T04:45:03.268Z,0
2019-01-02T04:50:02.653Z,0
2019-01-02T04:55:03.017Z,0
2019-01-02T05:00:02.421Z,0
2019-01-02T05:05:02.879Z,1
2019-01-02T05:10:03.318Z,1
2019-01-02T05:15:02.710Z,1
2019-01-02T05:20:03.061Z,1
2019-01-02T05:25:02.392Z,1
2019-01-02T05:30:02.822Z,1
2019-01-02T05:35:03.173Z,1
2019-01-02T05:40:02.585Z,1
2019-01-02T05:45:03.163Z,1
2019-01-02T05:50:02.549Z,1
2019-01-02T05:55:02.902Z,1
2019-01-02T06:00:03.243Z,1
2019-01-02T06:05:02.649Z,1
2019-01-02T06:10:03.098Z,1
2019-01-02T06:15:02.523Z,1
2019-01-02T06:20:02.907Z,1
2019-01-02T06:25:03.269Z,1
2019-01-02T06:30:02.647Z,1
2019-01-02T06:35:03.074Z,1
2019-01-02T06:40:02.480Z,1
2019-01-02T06:45:02.930Z,1
2019-01-02T06:50:03.377Z,1
2019-01-02T06:55:02.776Z,1
2019-01-02T07:00:03.125Z,2
2019-01-02T07:05:02.465Z,3
2019-01-02T07:10:02.897Z,8
2019-01-02T07:15:03.375Z,11
2019-01-02T07:20:02.744Z,18
2019-01-02T07:25:03.107Z,25
2019-01-02T07:30:02.504Z,37
2019-01-02T07:35:02.845Z,53
2019-01-02T07:40:03.303Z,67
2019-01-02T07:45:02.720Z,86
2019-01-02T07:50:03.212Z,77
2019-01-02T07:55:02.566Z,89
2019-01-02T08:05:02.344Z,227
2019-01-02T08:10:02.763Z,357
2019-01-02T08:15:03.758Z,427
2019-01-02T08:20:04.083Z,556
2019-01-02T08:25:02.579Z,517
2019-01-02T08:30:02.908Z,455
2019-01-02T08:35:03.262Z,422
2019-01-02T08:40:02.669Z,660
2019-01-02T08:45:03.017Z,730
2019-01-02T08:50:02.468Z,581
2019-01-02T08:55:02.881Z,554
2019-01-02T09:00:03.242Z,700
2019-01-02T09:05:02.561Z,955
2019-01-02T09:15:02.540Z,1000
2019-01-02T09:20:02.983Z,1000
2019-01-02T09:25:02.416Z,1000
2019-01-02T09:30:02.808Z,14000
2019-01-02T09:35:03.142Z,10000
2019-01-02T09:40:02.557Z,2000
2019-01-02T09:45:02.918Z,2000
2019-01-02T09:50:03.379Z,2000
2019-01-02T09:55:02.773Z,3000
2019-01-02T10:00:03.230Z,12000
2019-01-02T10:05:02.634Z,3000
2019-01-02T10:10:03.030Z,14000
2019-01-02T10:15:02.405Z,16000
2019-01-02T10:20:02.852Z,17000
2019-01-02T10:25:03.366Z,17000
2019-01-02T10:30:02.704Z,18000
2019-01-02T10:40:02.710Z,18000
2019-01-02T10:45:03.183Z,19000
2019-01-02T10:50:02.515Z,19000
2019-01-02T10:55:02.855Z,6000
2019-01-02T11:00:03.213Z,3000
2019-01-02T11:05:02.580Z,18000
2019-01-02T11:10:03.070Z,18000
2019-01-02T11:15:02.491Z,15000
2019-01-02T11:20:02.821Z,19000
2019-01-02T11:25:03.213Z,19000
2019-01-02T11:30:02.585Z,19000
2019-01-02T11:35:02.932Z,18000
2019-01-02T11:40:02.351Z,18000
2019-01-02T11:45:02.863Z,18000
2019-01-02T11:50:03.243Z,15000
2019-01-02T11:55:02.650Z,15000
2019-01-02T12:00:02.998Z,12000
2019-01-02T12:05:02.425Z,8000
2019-01-02T12:10:02.822Z,5000
2019-01-02T12:15:03.141Z,3000
2019-01-02T12:20:02.510Z,2000
2019-01-02T12:25:02.856Z,2000
2019-01-02T12:30:03.205Z,2000
2019-01-02T12:35:02.620Z,3000
2019-01-02T12:40:03.201Z,4000
2019-01-02T12:45:02.608Z,3000
2019-01-02T12:50:03.022Z,2000
2019-01-02T12:55:03.642Z,3000
2019-01-02T13:00:03.099Z,3000
2019-01-02T13:05:02.586Z,3000
2019-01-02T13:10:03.013Z,2000
2019-01-02T13:15:02.371Z,2000
2019-01-02T13:20:02.764Z,3000
2019-01-02T13:25:03.158Z,1000
2019-01-02T13:30:02.613Z,1000
2019-01-02T13:35:03.025Z,1000
2019-01-02T13:40:02.536Z,1000
2019-01-02T13:45:02.891Z,1000
2019-01-02T13:50:03.270Z,1000
2019-01-02T13:55:02.618Z,1000
2019-01-02T14:00:03.000Z,2000
2019-01-02T14:05:02.440Z,2000
2019-01-02T14:10:02.838Z,3000
2019-01-02T14:15:03.178Z,4000
2019-01-02T14:20:02.610Z,1000
2019-01-02T14:25:02.943Z,732
2019-01-02T14:30:03.280Z,723
2019-01-02T14:35:02.714Z,751
2019-01-02T14:40:03.158Z,627
2019-01-02T14:45:02.569Z,496
2019-01-02T14:50:02.948Z,464
2019-01-02T14:55:03.397Z,442
2019-01-02T15:00:02.797Z,410
2019-01-02T15:05:03.222Z,408
2019-01-02T15:10:02.635Z,453
2019-01-02T15:15:02.991Z,426
2019-01-02T15:20:02.390Z,416
2019-01-02T15:30:03.283Z,320
2019-01-02T15:35:02.709Z,258
2019-01-02T15:40:03.139Z,128
2019-01-02T15:45:02.553Z,70
2019-01-02T15:50:02.901Z,66
2019-01-02T15:55:03.242Z,56
2019-01-02T16:00:02.664Z,30
2019-01-02T16:05:03.031Z,17
2019-01-02T16:10:02.520Z,14
2019-01-02T16:15:02.905Z,8
2019-01-02T16:20:03.317Z,3
2019-01-02T16:25:02.720Z,2
2019-01-02T16:30:03.070Z,1
2019-01-02T16:35:02.543Z,1
2019-01-02T16:40:03.046Z,1
2019-01-02T16:45:02.361Z,1
2019-01-02T16:50:02.790Z,1
2019-01-02T16:55:03.141Z,1
2019-01-02T17:00:02.544Z,1
2019-01-02T17:05:02.903Z,1
2019-01-02T17:10:03.340Z,1
2019-01-02T17:15:02.754Z,1
2019-01-02T17:20:03.234Z,1
2019-01-02T17:25:02.657Z,1
2019-01-02T17:30:03.079Z,1
2019-01-02T17:35:02.491Z,1
2019-01-02T17:40:02.925Z,1
2019-01-02T17:45:03.481Z,1
2019-01-02T17:50:02.922Z,1
2019-01-02T17:55:03.371Z,1
2019-01-02T18:00:02.765Z,1
2019-01-02T18:05:03.106Z,1
2019-01-02T18:10:02.504Z,1
2019-01-02T18:15:02.875Z,1
2019-01-02T18:20:03.293Z,0
2019-01-02T18:25:02.727Z,1
2019-01-02T18:30:03.169Z,0
2019-01-02T18:35:02.573Z,0
2019-01-02T18:40:03.021Z,0
2019-01-02T18:45:02.451Z,1
2019-01-02T18:50:02.788Z,1
2019-01-02T18:55:03.135Z,0
2019-01-02T19:00:06.102Z,0
2019-01-02T19:05:02.784Z,0
2019-01-02T19:10:03.220Z,0
2019-01-02T19:15:02.703Z,0
2019-01-02T19:20:03.133Z,0
2019-01-02T19:25:02.554Z,0
2019-01-02T19:30:02.947Z,0
2019-01-02T19:35:03.300Z,0
2019-01-02T19:40:02.701Z,0
2019-01-02T19:45:03.061Z,1
2019-01-02T19:50:02.475Z,1
2019-01-02T19:55:02.919Z,0
2019-01-02T20:00:03.470Z,0
2019-01-02T20:10:02.390Z,1
2019-01-02T20:15:02.846Z,1
2019-01-02T20:20:03.243Z,0
2019-01-02T20:25:02.607Z,0
2019-01-02T20:30:03.242Z,0
2019-01-02T20:35:02.712Z,0
2019-01-02T20:40:03.151Z,0
2019-01-02T20:45:02.526Z,1
2019-01-02T20:50:02.870Z,1
2019-01-02T20:55:03.222Z,1
2019-01-02T21:00:02.630Z,1
2019-01-02T21:05:03.083Z,1
2019-01-02T21:10:02.485Z,1
2019-01-02T21:15:02.852Z,0
2019-01-02T21:20:03.273Z,1
2019-01-02T21:25:02.602Z,1
2019-01-02T21:30:02.983Z,0
2019-01-02T21:35:02.399Z,0
2019-01-02T21:40:02.799Z,0
2019-01-02T21:45:03.133Z,1
2019-01-02T21:50:02.555Z,0
2019-01-02T21:55:02.913Z,0
2019-01-02T22:00:03.268Z,0
2019-01-02T22:05:02.654Z,1
2019-01-02T22:10:03.025Z,1
2019-01-02T22:15:02.431Z,1
2019-01-02T22:20:02.875Z,1
2019-01-02T22:25:03.220Z,1
2019-01-02T22:30:02.945Z,0
2019-01-02T22:35:03.381Z,1
2019-01-02T22:40:02.746Z,0
2019-01-02T22:45:03.073Z,1
2019-01-02T22:50:02.449Z,1
2019-01-02T22:55:02.869Z,1
2019-01-02T23:00:03.280Z,1
2019-01-02T23:05:02.646Z,1
2019-01-02T23:10:03.093Z,1
2019-01-02T23:20:02.939Z,1
2019-01-02T23:25:03.380Z,1
2019-01-02T23:30:02.716Z,1
2019-01-02T23:35:03.160Z,1
2019-01-02T23:40:02.572Z,1
2019-01-02T23:45:02.920Z,0
2019-01-02T23:50:03.347Z,0
2019-01-02T23:55:02.711Z,1
